createdAt,value
2023-03-03T00:01:52.778Z,39.13
2023-03-03T00:04:19.353Z,70.73
2023-03-03T00:06:46.304Z,58.60
2023-03-03T00:09:12.976Z,75.43
2023-03-03T00:11:39.524Z,68.23
2023-03-03T00:14:37.353Z,65.40
2023-03-03T00:17:16.864Z,40.57
2023-03-03T00:19:49.237Z,48.30
2023-03-03T00:22:36.557Z,63.03
2023-03-03T00:25:25.260Z,40.43
2023-03-03T00:27:51.776Z,40.20
2023-03-03T00:30:25.484Z,25.40
2023-03-03T00:32:53.166Z,39.45
2023-03-03T00:35:27.830Z,30.70
2023-03-03T00:37:59.935Z,30.87
2023-03-03T00:40:38.018Z,31.67
2023-03-03T00:43:27.959Z,39.33
2023-03-03T00:45:56.100Z,34.10
2023-03-03T00:48:32.127Z,38.40
2023-03-03T00:51:00.353Z,34.10
2023-03-03T00:53:29.807Z,35.97
2023-03-03T00:55:56.700Z,36.40
2023-03-03T00:58:24.648Z,37.93
2023-03-03T01:00:53.590Z,46.77
2023-03-03T01:03:31.988Z,32.17
2023-03-03T01:05:58.540Z,39.10
2023-03-03T01:08:25.392Z,37.03
2023-03-03T01:10:54.825Z,38.13
2023-03-03T01:13:24.380Z,56.37
2023-03-03T01:15:51.485Z,48.27
2023-03-03T01:18:18.584Z,49.23
2023-03-03T01:20:45.126Z,45.23
2023-03-03T01:23:11.863Z,27.23
2023-03-03T01:25:38.620Z,120.57
2023-03-03T01:28:05.727Z,33.50
2023-03-03T01:30:32.874Z,39.17
2023-03-03T01:32:59.376Z,41.80
2023-03-03T01:35:25.888Z,31.77
2023-03-03T01:37:52.519Z,46.07
2023-03-03T01:40:23.670Z,29.33
2023-03-03T01:42:50.248Z,52.87
2023-03-03T01:45:31.789Z,58.93
2023-03-03T01:48:09.469Z,64.70
2023-03-03T01:50:48.297Z,32.27
2023-03-03T01:53:27.224Z,88.67
2023-03-03T01:55:54.391Z,41.43
2023-03-03T01:58:38.652Z,52.50
2023-03-03T02:03:33.903Z,33.77
2023-03-03T02:06:04.304Z,34.47
2023-03-03T02:08:37.191Z,41.60
2023-03-03T02:11:04.803Z,45.25
2023-03-03T02:13:31.466Z,44.60
2023-03-03T02:15:59.323Z,69.20
2023-03-03T02:18:27.076Z,31.23
2023-03-03T02:21:08.823Z,43.93
2023-03-03T02:23:59.523Z,55.03
2023-03-03T02:26:28.623Z,58.20
2023-03-03T02:31:30.330Z,47.67
2023-03-03T02:33:57.504Z,41.00
2023-03-03T02:36:28.134Z,40.47
2023-03-03T02:39:25.346Z,46.17
2023-03-03T02:42:02.446Z,40.70
2023-03-03T02:44:38.412Z,52.70
2023-03-03T02:47:05.242Z,41.10
2023-03-03T02:49:34.453Z,39.30
2023-03-03T02:52:05.105Z,34.87
2023-03-03T02:54:32.195Z,28.70
2023-03-03T02:57:02.166Z,35.10
2023-03-03T02:59:29.227Z,45.30
2023-03-03T03:02:07.362Z,50.37
2023-03-03T03:04:34.769Z,53.47
2023-03-03T03:07:02.099Z,55.77
2023-03-03T03:09:30.853Z,48.33
2023-03-03T03:12:02.324Z,53.53
2023-03-03T03:14:30.813Z,66.43
2023-03-03T03:16:57.381Z,75.07
2023-03-03T03:19:24.097Z,59.53
2023-03-03T03:21:51.324Z,31.60
2023-03-03T03:24:19.502Z,42.07
2023-03-03T03:26:53.213Z,31.67
2023-03-03T03:29:22.620Z,42.40
2023-03-03T03:31:49.219Z,43.50
2023-03-03T03:34:15.680Z,35.70
2023-03-03T03:36:43.557Z,23.40
2023-03-03T03:39:11.520Z,29.53
2023-03-03T03:41:41.926Z,28.60
2023-03-03T03:44:08.511Z,32.47
2023-03-03T03:46:36.259Z,26.07
2023-03-03T03:49:03.108Z,42.83
2023-03-03T03:51:31.183Z,33.47
2023-03-03T03:53:58.790Z,49.03
2023-03-03T03:56:26.166Z,38.00
2023-03-03T03:58:58.665Z,33.13
2023-03-03T04:01:25.522Z,27.57
2023-03-03T04:03:53.010Z,43.53
2023-03-03T04:06:22.546Z,22.27
2023-03-03T04:08:50.110Z,22.67
2023-03-03T04:11:18.939Z,29.40
2023-03-03T04:13:45.491Z,33.70
2023-03-03T04:16:13.149Z,36.10
2023-03-03T04:18:44.349Z,37.47
2023-03-03T04:21:13.839Z,46.60
2023-03-03T04:23:41.847Z,41.93
2023-03-03T04:26:09.066Z,43.03
2023-03-03T04:28:35.699Z,35.27
2023-03-03T04:31:03.134Z,28.13
2023-03-03T04:33:31.630Z,42.97
2023-03-03T04:35:59.208Z,26.20
2023-03-03T04:38:26.363Z,30.60
2023-03-03T04:40:58.842Z,24.63
2023-03-03T04:45:56.620Z,30.93
2023-03-03T04:48:23.406Z,27.57
2023-03-03T04:50:50.789Z,28.10
2023-03-03T04:53:17.567Z,28.27
2023-03-03T04:55:44.177Z,28.47
2023-03-03T04:58:11.229Z,28.67
2023-03-03T05:00:39.664Z,23.50
2023-03-03T05:03:08.790Z,24.50
2023-03-03T05:05:35.378Z,30.63
2023-03-03T05:08:04.423Z,19.87
2023-03-03T05:10:31.131Z,23.87
2023-03-03T05:12:57.798Z,20.87
2023-03-03T05:15:24.277Z,32.27
2023-03-03T05:17:53.435Z,17.43
2023-03-03T05:20:22.636Z,23.30
2023-03-03T05:22:49.110Z,14.17
2023-03-03T05:25:15.661Z,19.67
2023-03-03T05:27:43.718Z,21.47
2023-03-03T05:30:11.286Z,18.67
2023-03-03T05:32:40.963Z,16.87
2023-03-03T05:35:08.239Z,18.80
2023-03-03T05:37:34.851Z,17.87
2023-03-03T05:40:02.047Z,18.27
2023-03-03T05:42:28.967Z,16.37
2023-03-03T05:44:56.424Z,16.83
2023-03-03T05:47:22.901Z,15.23
2023-03-03T05:49:49.378Z,16.03
2023-03-03T05:52:16.151Z,16.70
2023-03-03T05:54:42.625Z,15.80
2023-03-03T05:57:09.086Z,17.47
2023-03-03T05:59:35.558Z,17.80
2023-03-03T06:02:02.124Z,20.50
2023-03-03T06:04:28.723Z,17.00
2023-03-03T06:06:55.196Z,18.57
2023-03-03T06:09:21.653Z,21.50
2023-03-03T06:11:48.136Z,18.63
2023-03-03T06:14:14.636Z,22.23
2023-03-03T06:16:41.129Z,20.70
2023-03-03T06:19:07.633Z,21.67
2023-03-03T06:21:34.173Z,18.97
2023-03-03T06:24:00.664Z,20.00
2023-03-03T06:26:27.109Z,22.83
2023-03-03T06:28:55.261Z,19.10
2023-03-03T06:31:21.832Z,21.60
2023-03-03T06:33:48.411Z,23.63
2023-03-03T06:36:14.894Z,23.37
2023-03-03T06:38:42.615Z,21.87
2023-03-03T06:41:09.651Z,23.03
2023-03-03T06:43:37.042Z,20.40
2023-03-03T06:46:04.852Z,21.23
2023-03-03T06:48:33.613Z,21.67
2023-03-03T06:51:02.378Z,24.33
2023-03-03T06:53:31.557Z,24.30
2023-03-03T06:55:58.709Z,24.17
2023-03-03T06:58:29.491Z,24.30
2023-03-03T07:01:00.682Z,23.87
2023-03-03T07:03:29.752Z,23.90
2023-03-03T07:05:56.296Z,24.93
2023-03-03T07:08:24.215Z,23.87
2023-03-03T07:10:52.024Z,25.23
2023-03-03T07:13:27.240Z,23.47
2023-03-03T07:15:55.982Z,30.47
2023-03-03T07:18:33.862Z,29.40
2023-03-03T07:21:27.110Z,24.73
2023-03-03T07:23:53.969Z,26.93
2023-03-03T07:26:30.646Z,29.40
2023-03-03T07:29:05.800Z,29.43
2023-03-03T07:31:37.778Z,30.43
2023-03-03T07:34:16.552Z,29.07
2023-03-03T07:36:43.420Z,28.13
2023-03-03T07:39:40.622Z,28.33
2023-03-03T07:42:17.496Z,27.77
2023-03-03T07:44:54.635Z,30.77
2023-03-03T07:47:31.792Z,33.35
2023-03-03T07:50:01.653Z,46.33
2023-03-03T07:52:31.466Z,34.97
2023-03-03T07:55:00.972Z,35.70
2023-03-03T07:57:31.466Z,31.73
2023-03-03T08:00:19.526Z,36.70
2023-03-03T08:03:05.594Z,33.37
2023-03-03T08:05:36.010Z,34.97
2023-03-03T08:08:16.116Z,35.43
2023-03-03T08:10:48.312Z,30.33
2023-03-03T08:13:23.387Z,30.37
2023-03-03T08:15:52.447Z,25.97
2023-03-03T08:18:25.336Z,28.83
2023-03-03T08:20:57.613Z,29.57
2023-03-03T08:23:24.517Z,28.75
2023-03-03T08:25:52.224Z,28.27
2023-03-03T08:28:20.062Z,25.50
2023-03-03T08:30:47.134Z,31.98
2023-03-03T08:33:16.271Z,27.67
2023-03-03T08:35:43.340Z,27.33
2023-03-03T08:38:11.156Z,27.67
2023-03-03T08:40:40.952Z,29.15
2023-03-03T08:43:07.493Z,27.73
2023-03-03T08:45:35.485Z,24.92
2023-03-03T08:48:05.557Z,29.50
2023-03-03T08:50:32.453Z,36.22
2023-03-03T08:53:00.592Z,24.25
2023-03-03T08:55:27.130Z,25.70
2023-03-03T08:57:53.631Z,25.63
2023-03-03T09:00:20.387Z,27.65
2023-03-03T09:02:47.306Z,25.40
2023-03-03T09:05:14.327Z,26.45
2023-03-03T09:07:41.743Z,23.70
2023-03-03T09:10:08.796Z,26.65
2023-03-03T09:12:39.851Z,23.67
2023-03-03T09:15:17.171Z,27.23
2023-03-03T09:17:44.409Z,21.45
2023-03-03T09:20:29.658Z,25.50
2023-03-03T09:22:56.269Z,22.10
2023-03-03T09:25:42.300Z,19.65
2023-03-03T09:28:27.453Z,21.65
2023-03-03T09:30:55.200Z,26.20
2023-03-03T09:33:28.667Z,24.58
2023-03-03T09:36:03.892Z,20.65
2023-03-03T09:38:32.501Z,19.05
2023-03-03T09:41:24.427Z,16.52
2023-03-03T09:44:04.511Z,16.75
2023-03-03T09:46:58.088Z,17.85
2023-03-03T09:49:35.738Z,18.83
2023-03-03T09:52:13.083Z,21.63
2023-03-03T09:55:16.971Z,23.42
2023-03-03T09:58:24.170Z,21.08
2023-03-03T10:01:13.445Z,21.77
2023-03-03T10:03:51.560Z,21.17
2023-03-03T10:06:39.917Z,19.60
2023-03-03T10:09:31.462Z,18.80
2023-03-03T10:12:18.123Z,17.70
2023-03-03T10:15:01.065Z,15.68
2023-03-03T10:17:39.370Z,23.30
2023-03-03T10:20:09.579Z,17.98
2023-03-03T10:23:11.043Z,17.05
2023-03-03T10:25:42.308Z,14.63
2023-03-03T10:28:49.347Z,16.40
2023-03-03T10:31:29.231Z,19.30
2023-03-03T10:34:08.632Z,17.90
2023-03-03T10:37:07.673Z,17.08
2023-03-03T10:40:17.739Z,17.20
2023-03-03T10:43:03.433Z,18.23
2023-03-03T10:45:53.202Z,19.92
2023-03-03T10:48:31.583Z,17.60
2023-03-03T10:51:19.744Z,18.13
2023-03-03T10:54:03.113Z,16.63
2023-03-03T10:56:53.609Z,16.23
2023-03-03T10:59:55.310Z,17.98
2023-03-03T11:02:47.076Z,17.30
2023-03-03T11:05:43.428Z,14.70
2023-03-03T11:08:24.276Z,15.77
2023-03-03T11:11:10.278Z,16.45
2023-03-03T11:13:44.602Z,16.05
2023-03-03T11:16:20.916Z,16.65
2023-03-03T11:19:15.065Z,18.23
2023-03-03T11:22:12.066Z,19.52
2023-03-03T11:25:06.813Z,15.98
2023-03-03T11:30:36.772Z,16.45
2023-03-03T11:33:11.474Z,16.75
2023-03-03T11:36:15.012Z,15.50
2023-03-03T11:38:54.922Z,15.20
2023-03-03T11:41:33.487Z,18.58
2023-03-03T11:44:11.019Z,19.88
2023-03-03T11:46:43.518Z,18.55
2023-03-03T11:49:18.091Z,18.38
2023-03-03T11:52:19.823Z,20.40
2023-03-03T11:54:54.605Z,18.35
2023-03-03T11:57:30.039Z,16.65
2023-03-03T12:00:08.300Z,16.00
2023-03-03T12:03:17.691Z,18.73
2023-03-03T12:05:56.212Z,16.35
2023-03-03T12:08:45.452Z,17.60
2023-03-03T12:11:38.430Z,16.00
2023-03-03T12:14:28.856Z,17.50
2023-03-03T12:17:01.746Z,16.83
2023-03-03T12:19:44.953Z,16.40
2023-03-03T12:22:35.626Z,17.67
2023-03-03T12:25:18.315Z,15.93
2023-03-03T12:27:50.889Z,16.33
2023-03-03T12:30:37.032Z,16.70
2023-03-03T12:33:23.741Z,17.15
2023-03-03T12:36:25.128Z,14.45
2023-03-03T12:39:06.004Z,17.52
2023-03-03T12:42:07.694Z,15.82
2023-03-03T12:44:39.305Z,13.32
2023-03-03T12:47:26.551Z,14.75
2023-03-03T12:50:10.066Z,13.32
2023-03-03T12:52:52.567Z,13.90
2023-03-03T12:55:29.721Z,12.90
2023-03-03T12:58:21.468Z,15.20
2023-03-03T13:00:52.762Z,14.57
2023-03-03T13:03:55.398Z,14.57
2023-03-03T13:06:36.888Z,12.13
2023-03-03T13:09:40.249Z,13.40
2023-03-03T13:12:32.161Z,13.27
2023-03-03T13:15:08.150Z,15.55
2023-03-03T13:17:43.378Z,12.65
2023-03-03T13:20:19.089Z,12.02
2023-03-03T13:22:57.515Z,15.85
2023-03-03T13:25:44.702Z,12.40
2023-03-03T13:28:23.466Z,10.52
2023-03-03T13:30:51.513Z,12.70
2023-03-03T13:33:30.390Z,12.65
2023-03-03T13:36:01.517Z,13.00
2023-03-03T13:38:45.534Z,12.68
2023-03-03T13:41:26.715Z,11.48
2023-03-03T13:44:08.607Z,10.13
2023-03-03T13:46:56.994Z,13.27
2023-03-03T13:49:47.543Z,11.00
2023-03-03T13:52:38.673Z,12.02
2023-03-03T13:55:19.291Z,13.38
2023-03-03T13:58:06.939Z,13.88
2023-03-03T14:01:12.612Z,14.10
2023-03-03T14:04:12.758Z,10.30
2023-03-03T14:06:41.673Z,10.93
2023-03-03T14:09:40.309Z,13.52
2023-03-03T14:12:30.391Z,11.23
2023-03-03T14:15:12.652Z,10.10
2023-03-03T14:17:55.212Z,11.82
2023-03-03T14:20:28.407Z,13.73
2023-03-03T14:23:00.276Z,11.82
2023-03-03T14:25:29.117Z,11.48
2023-03-03T14:28:08.914Z,12.20
2023-03-03T14:30:42.758Z,12.25
2023-03-03T14:33:12.113Z,11.35
2023-03-03T14:35:45.489Z,9.25
2023-03-03T14:38:18.702Z,10.90
2023-03-03T14:40:46.456Z,10.80
2023-03-03T14:43:25.623Z,9.55
2023-03-03T14:46:00.664Z,11.00
2023-03-03T14:48:27.818Z,12.23
2023-03-03T14:51:01.491Z,16.30
2023-03-03T14:53:38.781Z,9.55
2023-03-03T14:56:25.858Z,9.07
2023-03-03T14:58:54.340Z,9.60
2023-03-03T15:01:30.240Z,13.48
2023-03-03T15:04:05.294Z,8.35
2023-03-03T15:06:42.724Z,9.40
2023-03-03T15:09:25.657Z,10.48
2023-03-03T15:11:53.700Z,9.07
2023-03-03T15:14:23.574Z,14.20
2023-03-03T15:16:50.595Z,17.15
2023-03-03T15:19:45.534Z,14.68
2023-03-03T15:22:19.196Z,10.10
2023-03-03T15:25:00.043Z,8.50
2023-03-03T15:27:32.503Z,13.02
2023-03-03T15:30:15.650Z,11.63
2023-03-03T15:33:35.252Z,12.13
2023-03-03T15:36:15.624Z,11.13
2023-03-03T15:39:00.152Z,9.60
2023-03-03T15:41:41.116Z,10.25
2023-03-03T15:44:16.225Z,11.20
2023-03-03T15:47:10.526Z,8.32
2023-03-03T15:50:06.737Z,19.98
2023-03-03T15:52:38.270Z,12.40
2023-03-03T15:55:37.316Z,8.30
2023-03-03T15:58:37.061Z,11.70
2023-03-03T16:01:18.023Z,15.63
2023-03-03T16:03:48.473Z,9.93
2023-03-03T16:06:33.598Z,10.80
2023-03-03T16:09:13.949Z,8.88
2023-03-03T16:12:00.236Z,10.48
2023-03-03T16:15:01.156Z,14.82
2023-03-03T16:17:59.601Z,11.98
2023-03-03T16:20:38.759Z,9.95
2023-03-03T16:23:26.639Z,9.63
2023-03-03T16:26:11.880Z,9.05
2023-03-03T16:28:57.730Z,10.05
2023-03-03T16:31:41.796Z,10.63
2023-03-03T16:34:20.282Z,19.27
2023-03-03T16:37:07.525Z,20.77
2023-03-03T16:39:37.632Z,16.48
2023-03-03T16:42:21.415Z,11.38
2023-03-03T16:44:59.648Z,23.88
2023-03-03T16:47:47.038Z,9.40
2023-03-03T16:50:21.293Z,13.90
2023-03-03T16:52:59.454Z,9.77
2023-03-03T16:55:29.344Z,11.63
2023-03-03T16:58:17.792Z,9.95
2023-03-03T17:00:58.215Z,10.32
2023-03-03T17:03:54.027Z,12.50
2023-03-03T17:06:29.444Z,9.88
2023-03-03T17:09:14.140Z,12.80
2023-03-03T17:12:05.812Z,12.25
2023-03-03T17:14:53.115Z,13.43
2023-03-03T17:17:37.507Z,15.45
2023-03-03T17:20:08.353Z,10.40
2023-03-03T17:22:48.510Z,11.18
2023-03-03T17:25:43.236Z,15.07
2023-03-03T17:28:32.169Z,22.90
2023-03-03T17:31:06.639Z,23.35
2023-03-03T17:33:55.408Z,21.25
2023-03-03T17:36:26.964Z,48.55
2023-03-03T17:39:04.432Z,57.28
2023-03-03T17:42:05.333Z,63.25
2023-03-03T17:44:44.786Z,36.95
2023-03-03T17:47:13.668Z,26.45
2023-03-03T17:50:02.577Z,18.25
2023-03-03T17:52:53.699Z,13.10
2023-03-03T17:55:31.793Z,14.75
2023-03-03T17:58:29.865Z,15.10
2023-03-03T18:01:24.895Z,27.45
2023-03-03T18:03:59.093Z,22.08
2023-03-03T18:07:02.234Z,22.15
2023-03-03T18:09:47.968Z,19.63
2023-03-03T18:12:45.891Z,17.10
2023-03-03T18:15:18.342Z,16.65
2023-03-03T18:17:48.591Z,16.63
2023-03-03T18:20:41.982Z,16.73
2023-03-03T18:23:27.156Z,14.65
2023-03-03T18:25:59.801Z,14.55
2023-03-03T18:28:47.002Z,15.90
2023-03-03T18:31:50.175Z,21.05
2023-03-03T18:34:20.332Z,20.75
2023-03-03T18:36:59.108Z,15.23
2023-03-03T18:39:44.305Z,18.60
2023-03-03T18:42:15.623Z,17.13
2023-03-03T18:44:45.780Z,19.17
2023-03-03T18:47:17.408Z,17.70
2023-03-03T18:49:46.899Z,17.27
2023-03-03T18:52:21.256Z,15.20
2023-03-03T18:55:03.442Z,16.80
2023-03-03T18:57:30.056Z,19.67
2023-03-03T19:00:16.099Z,26.07
2023-03-03T19:02:52.102Z,33.40
2023-03-03T19:05:25.673Z,34.37
2023-03-03T19:08:00.235Z,32.33
2023-03-03T19:10:50.304Z,29.87
2023-03-03T19:13:32.426Z,32.20
2023-03-03T19:16:01.408Z,29.37
2023-03-03T19:18:29.190Z,33.43
2023-03-03T19:20:59.969Z,36.43
2023-03-03T19:24:01.572Z,38.67
2023-03-03T19:26:31.007Z,39.67
2023-03-03T19:29:00.348Z,41.90
2023-03-03T19:31:43.188Z,42.27
2023-03-03T19:34:12.495Z,46.23
2023-03-03T19:36:45.094Z,52.30
2023-03-03T19:39:18.074Z,50.23
2023-03-03T19:41:44.681Z,49.53
2023-03-03T19:44:39.625Z,53.50
2023-03-03T19:47:24.162Z,58.30
2023-03-03T19:49:53.567Z,59.23
2023-03-03T19:52:42.111Z,54.87
2023-03-03T19:55:18.713Z,61.50
2023-03-03T19:57:48.846Z,56.00
2023-03-03T20:00:34.239Z,55.83
2023-03-03T20:03:26.846Z,65.67
2023-03-03T20:06:05.610Z,61.93
2023-03-03T20:08:52.219Z,62.07
2023-03-03T20:11:46.124Z,64.43
2023-03-03T20:14:30.794Z,59.47
2023-03-03T20:17:22.592Z,59.47
2023-03-03T20:19:58.187Z,63.90
2023-03-03T20:22:44.133Z,62.53
2023-03-03T20:25:21.376Z,59.50
2023-03-03T20:28:02.023Z,59.03
2023-03-03T20:30:42.541Z,61.20
2023-03-03T20:33:22.116Z,63.27
2023-03-03T20:36:13.335Z,57.63
2023-03-03T20:38:48.661Z,61.97
2023-03-03T20:41:34.752Z,65.10
2023-03-03T20:44:23.961Z,62.30
2023-03-03T20:46:58.471Z,59.53
2023-03-03T20:49:27.789Z,54.37
2023-03-03T20:52:16.160Z,55.03
2023-03-03T20:55:09.566Z,55.87
2023-03-03T20:57:47.404Z,60.10
2023-03-03T21:00:17.046Z,59.27
2023-03-03T21:02:59.774Z,55.70
2023-03-03T21:05:26.374Z,59.57
2023-03-03T21:08:02.752Z,56.47
2023-03-03T21:10:33.850Z,56.63
2023-03-03T21:13:37.215Z,55.27
2023-03-03T21:16:22.703Z,55.10
2023-03-03T21:19:11.006Z,51.93
2023-03-03T21:21:49.785Z,54.17
2023-03-03T21:24:19.824Z,57.77
2023-03-03T21:26:56.604Z,57.57
2023-03-03T21:29:31.575Z,56.30
2023-03-03T21:32:03.308Z,56.93
2023-03-03T21:34:35.115Z,54.00
2023-03-03T21:37:09.771Z,55.63
2023-03-03T21:39:46.312Z,49.23
2023-03-03T21:42:19.161Z,51.30
2023-03-03T21:44:46.872Z,56.50
2023-03-03T21:47:15.190Z,50.93
2023-03-03T21:49:42.771Z,50.93
2023-03-03T21:52:09.918Z,53.97
2023-03-03T21:54:36.394Z,53.60
2023-03-03T21:57:02.873Z,50.60
2023-03-03T21:59:29.408Z,52.73
2023-03-03T22:01:55.949Z,52.47
2023-03-03T22:04:22.809Z,51.77
2023-03-03T22:06:49.327Z,52.43
2023-03-03T22:09:15.822Z,49.57
2023-03-03T22:11:42.907Z,46.90
2023-03-03T22:14:09.798Z,49.87
2023-03-03T22:16:36.291Z,50.95
2023-03-03T22:19:03.899Z,47.67
2023-03-03T22:21:30.928Z,48.87
2023-03-03T22:23:58.106Z,47.60
2023-03-03T22:26:24.802Z,48.00
2023-03-03T22:28:51.310Z,47.23
2023-03-03T22:31:20.933Z,45.30
2023-03-03T22:33:48.655Z,46.73
2023-03-03T22:36:15.909Z,42.77
2023-03-03T22:38:42.490Z,40.67
2023-03-03T22:41:09.094Z,41.03
2023-03-03T22:43:35.600Z,43.33
2023-03-03T22:46:02.289Z,43.00
2023-03-03T22:48:29.601Z,37.43
2023-03-03T22:50:56.729Z,38.37
2023-03-03T22:53:23.733Z,37.95
2023-03-03T22:55:50.729Z,34.67
2023-03-03T22:58:20.030Z,39.40
2023-03-03T23:00:49.575Z,37.87
2023-03-03T23:03:16.367Z,36.37
2023-03-03T23:05:43.489Z,37.97
2023-03-03T23:08:13.287Z,35.78
2023-03-03T23:10:40.071Z,36.67
2023-03-03T23:13:07.326Z,35.47
2023-03-03T23:15:34.029Z,34.67
2023-03-03T23:18:00.518Z,36.37
2023-03-03T23:20:28.657Z,37.30
2023-03-03T23:22:58.567Z,34.17
2023-03-03T23:25:25.487Z,34.93
2023-03-03T23:27:52.835Z,37.37
2023-03-03T23:30:21.550Z,34.90
2023-03-03T23:32:49.060Z,32.90
2023-03-03T23:35:16.135Z,40.10
2023-03-03T23:37:43.266Z,34.43
2023-03-03T23:40:11.248Z,33.17
2023-03-03T23:42:40.572Z,32.83
2023-03-03T23:45:07.607Z,38.20
2023-03-03T23:47:34.199Z,38.55
2023-03-03T23:50:00.662Z,39.20
2023-03-03T23:52:27.174Z,32.80
2023-03-03T23:54:53.765Z,34.45
2023-03-03T23:57:20.275Z,34.15
2023-03-03T23:59:46.973Z,37.22
